createdAt,value
2023-01-29T00:02:26.002Z,31.63
2023-01-29T00:04:58.716Z,32.95
2023-01-29T00:07:26.680Z,33.38
2023-01-29T00:09:54.315Z,26.33
2023-01-29T00:12:21.989Z,29.50
2023-01-29T00:14:49.769Z,30.58
2023-01-29T00:17:17.776Z,36.20
2023-01-29T00:19:45.475Z,30.85
2023-01-29T00:22:13.085Z,35.72
2023-01-29T00:24:40.728Z,33.38
2023-01-29T00:27:08.472Z,34.53
2023-01-29T00:29:36.107Z,33.28
2023-01-29T00:32:04.076Z,34.72
2023-01-29T00:34:31.917Z,32.33
2023-01-29T00:37:04.914Z,33.92
2023-01-29T00:39:47.415Z,34.97
2023-01-29T00:42:34.364Z,35.97
2023-01-29T00:45:02.333Z,35.90
2023-01-29T00:47:36.509Z,34.50
2023-01-29T00:50:11.237Z,32.75
2023-01-29T00:52:41.141Z,36.80
2023-01-29T00:55:11.290Z,34.08
2023-01-29T00:57:39.517Z,32.22
2023-01-29T01:00:12.922Z,32.22
2023-01-29T01:02:59.519Z,31.67
2023-01-29T01:05:28.100Z,42.15
2023-01-29T01:07:58.292Z,31.85
2023-01-29T01:10:30.884Z,35.30
2023-01-29T01:13:02.832Z,48.55
2023-01-29T01:15:35.354Z,32.90
2023-01-29T01:18:05.194Z,34.67
2023-01-29T01:20:35.830Z,35.92
2023-01-29T01:23:04.323Z,38.38
2023-01-29T01:25:32.623Z,35.60
2023-01-29T01:28:03.167Z,39.25
2023-01-29T01:30:31.021Z,33.45
2023-01-29T01:33:00.007Z,40.45
2023-01-29T01:35:28.265Z,39.75
2023-01-29T01:37:55.894Z,38.20
2023-01-29T01:40:25.796Z,41.67
2023-01-29T01:42:59.525Z,41.25
2023-01-29T01:45:35.971Z,37.50
2023-01-29T01:48:15.354Z,39.92
2023-01-29T01:50:52.624Z,42.35
2023-01-29T01:53:34.324Z,40.50
2023-01-29T01:56:08.335Z,39.15
2023-01-29T01:58:41.760Z,41.30
2023-01-29T02:01:10.400Z,39.72
2023-01-29T02:04:14.319Z,39.10
2023-01-29T02:07:01.844Z,35.20
2023-01-29T02:09:40.261Z,34.85
2023-01-29T02:12:12.997Z,35.80
2023-01-29T02:14:42.678Z,37.17
2023-01-29T02:17:15.077Z,38.67
2023-01-29T02:20:09.537Z,36.33
2023-01-29T02:23:08.030Z,37.08
2023-01-29T02:26:14.091Z,40.45
2023-01-29T02:28:54.829Z,39.78
2023-01-29T02:31:29.623Z,39.80
2023-01-29T02:34:32.162Z,39.22
2023-01-29T02:37:11.388Z,39.95
2023-01-29T02:39:49.789Z,40.85
2023-01-29T02:42:31.449Z,41.70
2023-01-29T02:45:19.693Z,45.75
2023-01-29T02:48:02.201Z,41.60
2023-01-29T02:51:04.790Z,37.97
2023-01-29T02:54:22.577Z,43.80
2023-01-29T02:57:01.397Z,40.55
2023-01-29T02:59:40.254Z,39.90
2023-01-29T03:02:19.125Z,38.30
2023-01-29T03:04:58.751Z,42.63
2023-01-29T03:07:42.576Z,43.67
2023-01-29T03:12:55.699Z,39.55
2023-01-29T03:15:31.285Z,41.55
2023-01-29T03:18:22.795Z,41.53
2023-01-29T03:20:58.590Z,43.88
2023-01-29T03:23:53.907Z,42.95
2023-01-29T03:26:41.703Z,40.63
2023-01-29T03:29:29.407Z,47.53
2023-01-29T03:32:04.238Z,41.95
2023-01-29T03:34:41.942Z,40.25
2023-01-29T03:37:29.639Z,41.53
2023-01-29T03:39:57.650Z,46.08
2023-01-29T03:42:59.962Z,49.38
2023-01-29T03:45:43.030Z,46.38
2023-01-29T03:48:39.650Z,46.22
2023-01-29T03:51:34.471Z,46.45
2023-01-29T03:54:57.401Z,44.78
2023-01-29T03:57:45.608Z,41.42
2023-01-29T04:00:27.987Z,46.65
2023-01-29T04:03:14.835Z,47.30
2023-01-29T04:06:05.603Z,46.72
2023-01-29T04:09:03.917Z,44.40
2023-01-29T04:11:41.659Z,46.95
2023-01-29T04:14:10.022Z,52.05
2023-01-29T04:16:42.574Z,49.42
2023-01-29T04:19:30.456Z,49.78
2023-01-29T04:22:19.293Z,40.28
2023-01-29T04:24:48.834Z,43.75
2023-01-29T04:27:42.077Z,40.33
2023-01-29T04:30:45.083Z,44.92
2023-01-29T04:33:26.624Z,46.08
2023-01-29T04:36:09.110Z,42.90
2023-01-29T04:39:00.837Z,41.85
2023-01-29T04:41:51.860Z,42.75
2023-01-29T04:44:37.418Z,40.75
2023-01-29T04:47:42.007Z,46.88
2023-01-29T04:50:26.424Z,41.38
2023-01-29T04:52:56.781Z,43.08
2023-01-29T04:55:42.813Z,44.10
2023-01-29T05:03:43.239Z,42.42
2023-01-29T05:06:11.756Z,39.17
2023-01-29T05:08:40.981Z,39.22
2023-01-29T05:11:08.891Z,40.97
2023-01-29T05:13:40.023Z,39.08
2023-01-29T05:16:20.074Z,45.40
2023-01-29T05:18:48.032Z,41.75
2023-01-29T05:21:15.929Z,50.50
2023-01-29T05:23:53.342Z,44.53
2023-01-29T05:26:40.551Z,44.35
2023-01-29T05:29:08.413Z,41.95
2023-01-29T05:31:36.036Z,40.60
2023-01-29T05:34:03.715Z,41.20
2023-01-29T05:36:31.348Z,41.30
2023-01-29T05:38:59.007Z,44.65
2023-01-29T05:41:26.663Z,41.22
2023-01-29T05:43:54.282Z,42.22
2023-01-29T05:46:22.090Z,42.60
2023-01-29T05:48:52.732Z,44.53
2023-01-29T05:51:20.589Z,45.08
2023-01-29T05:53:48.362Z,41.05
2023-01-29T05:56:15.991Z,45.47
2023-01-29T05:58:43.703Z,44.13
2023-01-29T06:01:16.523Z,47.00
2023-01-29T06:03:45.153Z,44.90
2023-01-29T06:06:13.342Z,40.55
2023-01-29T06:08:41.397Z,42.92
2023-01-29T06:11:11.497Z,43.03
2023-01-29T06:13:39.505Z,41.10
2023-01-29T06:16:09.085Z,44.10
2023-01-29T06:18:38.022Z,39.90
2023-01-29T06:21:09.722Z,43.15
2023-01-29T06:23:38.113Z,42.13
2023-01-29T06:26:15.587Z,44.47
2023-01-29T06:28:45.183Z,41.67
2023-01-29T06:31:33.024Z,46.78
2023-01-29T06:34:00.562Z,42.22
2023-01-29T06:36:28.226Z,47.58
2023-01-29T06:38:55.923Z,44.60
2023-01-29T06:41:25.677Z,44.95
2023-01-29T06:43:53.437Z,47.20
2023-01-29T06:46:21.269Z,45.55
2023-01-29T06:48:48.911Z,44.50
2023-01-29T06:51:16.570Z,44.67
2023-01-29T06:53:46.216Z,45.60
2023-01-29T06:56:14.540Z,50.45
2023-01-29T06:58:43.577Z,50.38
2023-01-29T07:01:17.522Z,46.92
2023-01-29T07:03:51.785Z,45.25
2023-01-29T07:06:19.669Z,49.20
2023-01-29T07:08:47.532Z,45.30
2023-01-29T07:11:15.239Z,44.97
2023-01-29T07:13:42.881Z,44.03
2023-01-29T07:16:10.744Z,45.47
2023-01-29T07:18:38.541Z,40.10
2023-01-29T07:21:07.445Z,47.20
2023-01-29T07:23:35.581Z,48.15
2023-01-29T07:26:06.923Z,45.70
2023-01-29T07:28:39.255Z,45.25
2023-01-29T07:31:08.981Z,41.90
2023-01-29T07:33:36.812Z,42.55
2023-01-29T07:36:09.750Z,42.42
2023-01-29T07:38:37.440Z,43.22
2023-01-29T07:41:05.402Z,44.95
2023-01-29T07:43:33.382Z,41.05
2023-01-29T07:46:05.903Z,42.67
2023-01-29T07:48:33.820Z,45.78
2023-01-29T07:51:01.865Z,46.97
2023-01-29T07:53:29.895Z,43.85
2023-01-29T07:55:58.114Z,40.72
2023-01-29T07:58:25.940Z,44.13
2023-01-29T08:00:53.645Z,44.85
2023-01-29T08:03:21.449Z,43.55
2023-01-29T08:05:49.271Z,44.45
2023-01-29T08:08:17.031Z,40.90
2023-01-29T08:10:44.762Z,39.72
2023-01-29T08:13:12.516Z,42.60
2023-01-29T08:15:45.166Z,42.85
2023-01-29T08:18:13.852Z,42.35
2023-01-29T08:20:41.560Z,40.55
2023-01-29T08:23:16.501Z,40.95
2023-01-29T08:25:44.419Z,42.58
2023-01-29T08:28:12.539Z,36.35
2023-01-29T08:30:40.818Z,40.20
2023-01-29T08:33:08.558Z,37.75
2023-01-29T08:35:36.895Z,37.03
2023-01-29T08:38:11.980Z,40.33
2023-01-29T08:40:43.740Z,38.30
2023-01-29T08:43:13.656Z,40.25
2023-01-29T08:45:43.849Z,37.38
2023-01-29T08:48:11.784Z,36.47
2023-01-29T08:50:39.737Z,38.50
2023-01-29T08:53:09.492Z,39.33
2023-01-29T08:55:41.179Z,37.58
2023-01-29T08:58:11.940Z,38.05
2023-01-29T09:00:39.824Z,37.30
2023-01-29T09:03:09.184Z,36.65
2023-01-29T09:05:40.995Z,36.97
2023-01-29T09:08:09.987Z,32.20
2023-01-29T09:10:37.858Z,36.67
2023-01-29T09:13:05.757Z,36.22
2023-01-29T09:15:34.546Z,35.33
2023-01-29T09:18:05.849Z,35.13
2023-01-29T09:20:33.821Z,32.65
2023-01-29T09:23:09.826Z,33.10
2023-01-29T09:25:38.144Z,34.28
2023-01-29T09:28:06.320Z,32.30
2023-01-29T09:30:37.577Z,35.15
2023-01-29T09:33:07.116Z,36.83
2023-01-29T09:35:35.211Z,39.22
2023-01-29T09:38:02.853Z,33.40
2023-01-29T09:40:48.566Z,38.88
2023-01-29T09:43:28.874Z,34.63
2023-01-29T09:46:05.599Z,35.83
2023-01-29T09:48:36.291Z,36.10
2023-01-29T09:51:15.081Z,34.30
2023-01-29T09:54:06.144Z,34.50
2023-01-29T09:56:35.107Z,32.38
2023-01-29T09:59:02.826Z,36.50
2023-01-29T10:01:42.395Z,37.92
2023-01-29T10:04:48.286Z,34.92
2023-01-29T10:07:30.985Z,46.67
2023-01-29T10:10:28.007Z,33.50
2023-01-29T10:12:58.694Z,35.47
2023-01-29T10:15:46.525Z,34.67
2023-01-29T10:18:45.310Z,33.28
2023-01-29T10:22:02.416Z,35.28
2023-01-29T10:24:39.334Z,34.85
2023-01-29T10:27:16.268Z,35.00
2023-01-29T10:29:46.873Z,36.15
2023-01-29T10:32:22.044Z,35.80
2023-01-29T10:34:55.715Z,35.65
2023-01-29T10:37:33.035Z,33.10
2023-01-29T10:40:00.913Z,32.17
2023-01-29T10:43:00.844Z,30.98
2023-01-29T10:46:06.499Z,32.40
2023-01-29T10:48:55.063Z,34.15
2023-01-29T10:51:36.451Z,36.25
2023-01-29T10:54:33.438Z,36.80
2023-01-29T10:58:02.931Z,34.13
2023-01-29T11:00:38.178Z,31.65
2023-01-29T11:03:27.584Z,31.50
2023-01-29T11:06:11.830Z,30.42
2023-01-29T11:09:10.132Z,31.23
2023-01-29T11:12:11.814Z,42.22
2023-01-29T11:14:59.066Z,31.35
2023-01-29T11:17:27.455Z,29.73
2023-01-29T11:19:56.253Z,35.55
2023-01-29T11:22:30.349Z,31.38
2023-01-29T11:25:21.126Z,31.02
2023-01-29T11:28:02.505Z,34.20
2023-01-29T11:30:34.632Z,36.65
2023-01-29T11:33:22.747Z,30.98
2023-01-29T11:35:52.617Z,25.75
2023-01-29T11:38:27.106Z,28.50
2023-01-29T11:41:07.743Z,30.13
2023-01-29T11:43:35.612Z,35.45
2023-01-29T11:46:07.303Z,29.30
2023-01-29T11:48:50.328Z,30.27
2023-01-29T11:51:26.189Z,32.85
2023-01-29T11:54:03.802Z,28.23
2023-01-29T11:56:45.581Z,29.75
2023-01-29T11:59:44.265Z,30.80
2023-01-29T12:02:30.682Z,29.75
2023-01-29T12:07:34.694Z,26.02
2023-01-29T12:10:03.452Z,26.45
2023-01-29T12:12:42.568Z,28.45
2023-01-29T12:15:25.147Z,24.95
2023-01-29T12:18:21.738Z,25.05
2023-01-29T12:23:50.352Z,26.25
2023-01-29T12:26:44.483Z,27.42
2023-01-29T12:29:37.167Z,33.83
2023-01-29T12:32:26.598Z,23.25
2023-01-29T12:35:12.991Z,25.20
2023-01-29T12:37:53.926Z,25.50
2023-01-29T12:40:25.799Z,25.02
2023-01-29T12:43:00.750Z,22.65
2023-01-29T12:45:31.149Z,23.10
2023-01-29T12:48:21.228Z,26.63
2023-01-29T12:50:50.321Z,24.98
2023-01-29T12:53:33.636Z,22.60
2023-01-29T12:56:10.748Z,25.05
2023-01-29T12:59:00.851Z,24.58
2023-01-29T13:01:33.088Z,19.35
2023-01-29T13:04:45.562Z,20.85
2023-01-29T13:07:30.523Z,19.77
2023-01-29T13:10:08.461Z,23.23
2023-01-29T13:12:40.279Z,24.15
2023-01-29T13:15:37.411Z,21.55
2023-01-29T13:18:29.431Z,24.85
2023-01-29T13:20:57.640Z,21.48
2023-01-29T13:23:38.095Z,25.10
2023-01-29T13:26:06.515Z,23.20
2023-01-29T13:28:34.446Z,24.67
2023-01-29T13:31:29.485Z,20.05
2023-01-29T13:34:22.689Z,23.60
2023-01-29T13:36:58.297Z,20.02
2023-01-29T13:41:59.664Z,22.10
2023-01-29T13:44:37.117Z,23.48
2023-01-29T13:47:09.140Z,21.80
2023-01-29T13:49:41.115Z,22.77
2023-01-29T13:52:45.064Z,24.33
2023-01-29T13:55:15.989Z,25.45
2023-01-29T13:57:50.293Z,24.42
2023-01-29T14:00:21.079Z,22.63
2023-01-29T14:03:08.836Z,22.80
2023-01-29T14:05:57.231Z,25.02
2023-01-29T14:08:43.599Z,21.52
2023-01-29T14:11:17.371Z,23.65
2023-01-29T14:13:50.091Z,20.83
2023-01-29T14:16:17.836Z,26.50
2023-01-29T14:18:56.370Z,24.17
2023-01-29T14:21:31.967Z,26.55
2023-01-29T14:26:49.646Z,27.67
2023-01-29T14:29:35.048Z,25.77
2023-01-29T14:32:25.507Z,28.52
2023-01-29T14:35:04.301Z,25.27
2023-01-29T14:37:40.312Z,26.00
2023-01-29T14:40:20.131Z,25.17
2023-01-29T14:43:01.946Z,31.33
2023-01-29T14:45:30.577Z,27.70
2023-01-29T14:48:09.972Z,25.95
2023-01-29T14:50:37.894Z,24.95
2023-01-29T14:53:31.435Z,30.27
2023-01-29T14:56:03.547Z,29.90
2023-01-29T14:58:49.069Z,24.48
2023-01-29T15:01:31.048Z,26.67
2023-01-29T15:04:12.974Z,28.80
2023-01-29T15:06:53.384Z,26.80
2023-01-29T15:09:42.241Z,31.73
2023-01-29T15:12:26.044Z,35.03
2023-01-29T15:15:22.339Z,28.10
2023-01-29T15:18:05.986Z,32.22
2023-01-29T15:20:40.712Z,32.35
2023-01-29T15:23:30.776Z,29.13
2023-01-29T15:26:20.516Z,25.58
2023-01-29T15:29:03.555Z,24.55
2023-01-29T15:31:32.432Z,28.92
2023-01-29T15:34:06.665Z,27.02
2023-01-29T15:36:36.719Z,26.48
2023-01-29T15:39:17.651Z,26.00
2023-01-29T15:41:46.435Z,26.90
2023-01-29T15:44:18.670Z,26.25
2023-01-29T15:46:55.203Z,29.40
2023-01-29T15:49:37.978Z,28.50
2023-01-29T15:52:18.417Z,25.35
2023-01-29T15:54:46.816Z,29.27
2023-01-29T15:57:26.007Z,24.38
2023-01-29T15:59:57.019Z,30.15
2023-01-29T16:02:42.925Z,25.67
2023-01-29T16:05:29.052Z,27.80
2023-01-29T16:10:31.610Z,30.88
2023-01-29T16:13:00.107Z,31.67
2023-01-29T16:15:36.219Z,37.42
2023-01-29T16:18:21.201Z,36.85
2023-01-29T16:20:55.754Z,30.60
2023-01-29T16:23:31.739Z,33.10
2023-01-29T16:26:06.361Z,31.17
2023-01-29T16:28:41.549Z,32.30
2023-01-29T16:31:10.619Z,33.45
2023-01-29T16:33:42.429Z,31.98
2023-01-29T16:36:27.463Z,29.60
2023-01-29T16:39:05.566Z,28.55
2023-01-29T16:41:36.495Z,29.95
2023-01-29T16:44:16.674Z,32.42
2023-01-29T16:46:51.194Z,29.67
2023-01-29T16:49:31.520Z,34.50
2023-01-29T16:52:24.201Z,33.65
2023-01-29T16:54:53.627Z,32.92
2023-01-29T16:57:29.298Z,32.05
2023-01-29T17:00:00.492Z,32.65
2023-01-29T17:02:33.388Z,34.60
2023-01-29T17:05:07.537Z,41.15
2023-01-29T17:07:36.826Z,31.48
2023-01-29T17:10:07.036Z,35.35
2023-01-29T17:12:36.768Z,38.38
2023-01-29T17:15:43.688Z,33.80
2023-01-29T17:18:30.560Z,36.30
2023-01-29T17:20:58.244Z,36.80
2023-01-29T17:23:25.888Z,34.85
2023-01-29T17:25:53.952Z,38.45
2023-01-29T17:28:21.966Z,32.50
2023-01-29T17:31:04.987Z,36.10
2023-01-29T17:33:34.862Z,35.28
2023-01-29T17:36:03.337Z,36.70
2023-01-29T17:38:31.034Z,39.72
2023-01-29T17:41:14.596Z,37.45
2023-01-29T17:43:44.157Z,35.28
2023-01-29T17:46:17.322Z,40.53
2023-01-29T17:48:45.699Z,33.67
2023-01-29T17:51:16.410Z,34.50
2023-01-29T17:53:46.694Z,35.13
2023-01-29T17:56:27.506Z,34.08
2023-01-29T17:58:55.389Z,37.25
2023-01-29T18:01:23.029Z,34.15
2023-01-29T18:03:50.736Z,35.33
2023-01-29T18:06:31.807Z,33.53
2023-01-29T18:08:59.531Z,35.20
2023-01-29T18:11:28.233Z,34.53
2023-01-29T18:13:56.787Z,36.63
2023-01-29T18:16:25.439Z,33.22
2023-01-29T18:18:54.455Z,48.20
2023-01-29T18:21:22.750Z,44.30
2023-01-29T18:23:50.440Z,35.75
2023-01-29T18:26:18.187Z,35.97
2023-01-29T18:28:46.094Z,36.42
2023-01-29T18:31:14.468Z,34.08
2023-01-29T18:33:42.387Z,35.72
2023-01-29T18:36:10.156Z,36.85
2023-01-29T18:38:37.777Z,36.85
2023-01-29T18:41:07.433Z,36.42
2023-01-29T18:43:35.094Z,36.22
2023-01-29T18:46:03.459Z,36.28
2023-01-29T18:48:31.172Z,42.78
2023-01-29T18:50:59.242Z,36.88
2023-01-29T18:53:27.249Z,35.50
2023-01-29T18:56:04.596Z,41.30
2023-01-29T18:58:36.547Z,37.85
2023-01-29T19:01:11.827Z,37.42
2023-01-29T19:03:43.185Z,38.13
2023-01-29T19:06:12.192Z,39.92
2023-01-29T19:08:41.039Z,43.55
2023-01-29T19:11:09.673Z,46.83
2023-01-29T19:13:38.361Z,46.75
2023-01-29T19:16:09.151Z,39.63
2023-01-29T19:18:37.022Z,38.28
2023-01-29T19:21:13.787Z,42.17
2023-01-29T19:23:43.246Z,45.38
2023-01-29T19:26:11.755Z,41.08
2023-01-29T19:28:39.778Z,44.88
2023-01-29T19:31:09.298Z,46.40
2023-01-29T19:33:37.288Z,42.97
2023-01-29T19:36:05.620Z,45.15
2023-01-29T19:38:37.927Z,44.95
2023-01-29T19:41:06.446Z,40.65
2023-01-29T19:43:34.264Z,39.85
2023-01-29T19:46:03.376Z,42.58
2023-01-29T19:48:31.121Z,39.17
2023-01-29T19:51:02.582Z,40.53
2023-01-29T19:53:31.765Z,40.00
2023-01-29T19:56:06.368Z,42.95
2023-01-29T19:58:34.783Z,43.55
2023-01-29T20:01:07.490Z,47.75
2023-01-29T20:03:35.216Z,41.55
2023-01-29T20:06:05.676Z,59.50
2023-01-29T20:08:34.968Z,46.78
2023-01-29T20:11:03.324Z,48.17
2023-01-29T20:13:31.975Z,43.53
2023-01-29T20:16:03.178Z,45.63
2023-01-29T20:18:32.195Z,38.58
2023-01-29T20:21:06.001Z,42.45
2023-01-29T20:23:38.146Z,41.30
2023-01-29T20:26:09.036Z,44.10
2023-01-29T20:28:36.976Z,41.85
2023-01-29T20:31:06.906Z,43.63
2023-01-29T20:33:37.547Z,43.70
2023-01-29T20:36:10.043Z,45.40
2023-01-29T20:38:38.168Z,45.28
2023-01-29T20:41:17.809Z,46.28
2023-01-29T20:43:46.872Z,47.97
2023-01-29T20:46:14.690Z,48.03
2023-01-29T20:48:42.817Z,47.10
2023-01-29T20:51:18.981Z,43.97
2023-01-29T20:53:48.213Z,44.33
2023-01-29T20:56:23.101Z,43.20
2023-01-29T20:59:04.226Z,45.13
2023-01-29T21:01:31.950Z,43.95
2023-01-29T21:03:59.886Z,51.72
2023-01-29T21:06:29.561Z,43.13
2023-01-29T21:08:57.344Z,42.92
2023-01-29T21:11:26.078Z,46.47
2023-01-29T21:13:57.675Z,51.70
2023-01-29T21:16:28.623Z,44.38
2023-01-29T21:18:59.518Z,42.13
2023-01-29T21:21:27.565Z,46.15
2023-01-29T21:23:55.448Z,43.25
2023-01-29T21:26:23.576Z,43.00
2023-01-29T21:28:51.351Z,40.65
2023-01-29T21:31:19.067Z,38.13
2023-01-29T21:33:46.781Z,40.70
2023-01-29T21:36:14.696Z,43.78
2023-01-29T21:38:42.432Z,39.53
2023-01-29T21:41:10.493Z,39.25
2023-01-29T21:43:39.035Z,38.83
2023-01-29T21:46:12.088Z,36.92
2023-01-29T21:48:41.079Z,40.05
2023-01-29T21:51:08.989Z,35.83
2023-01-29T21:53:37.328Z,35.50
2023-01-29T21:56:05.971Z,33.88
2023-01-29T21:58:33.860Z,34.75
2023-01-29T22:01:18.461Z,39.50
2023-01-29T22:03:49.215Z,37.75
2023-01-29T22:06:17.102Z,37.00
2023-01-29T22:08:44.925Z,35.88
2023-01-29T22:11:12.790Z,33.72
2023-01-29T22:13:40.512Z,37.17
2023-01-29T22:16:08.652Z,36.85
2023-01-29T22:18:36.447Z,38.60
2023-01-29T22:21:04.245Z,39.28
2023-01-29T22:23:32.431Z,38.13
2023-01-29T22:26:07.126Z,33.75
2023-01-29T22:28:35.360Z,34.57
2023-01-29T22:31:05.493Z,35.83
2023-01-29T22:33:33.552Z,34.80
2023-01-29T22:36:02.030Z,38.75
2023-01-29T22:38:30.685Z,31.75
2023-01-29T22:41:01.093Z,31.10
2023-01-29T22:43:31.609Z,32.85
2023-01-29T22:45:59.385Z,34.92
2023-01-29T22:48:28.565Z,33.97
2023-01-29T22:51:09.496Z,34.35
2023-01-29T22:53:39.206Z,34.15
2023-01-29T22:56:08.339Z,35.30
2023-01-29T22:58:36.238Z,38.75
2023-01-29T23:01:04.503Z,33.50
2023-01-29T23:03:32.231Z,33.47
2023-01-29T23:05:59.961Z,37.88
2023-01-29T23:08:28.069Z,32.25
2023-01-29T23:11:13.893Z,33.28
2023-01-29T23:13:44.689Z,30.30
2023-01-29T23:16:13.525Z,31.98
2023-01-29T23:18:41.904Z,34.90
2023-01-29T23:21:10.393Z,33.75
2023-01-29T23:23:38.826Z,37.10
2023-01-29T23:26:26.394Z,35.47
2023-01-29T23:28:54.133Z,37.40
2023-01-29T23:31:22.100Z,40.60
2023-01-29T23:33:50.488Z,35.95
2023-01-29T23:36:18.243Z,33.90
2023-01-29T23:38:46.023Z,35.70
2023-01-29T23:41:13.944Z,34.20
2023-01-29T23:43:41.717Z,30.92
2023-01-29T23:46:09.336Z,37.03
2023-01-29T23:48:37.279Z,35.53
2023-01-29T23:51:05.109Z,34.92
2023-01-29T23:53:32.807Z,30.73
2023-01-29T23:56:03.542Z,38.13
2023-01-29T23:58:33.013Z,37.92
